Time;durP1;ratioP1;P1;durP2;ratioP2;P2;SDS_P1;SDS_P2;PMS_P1;PMS_P2;Temp;Humidity;BMP_temperature;BMP_pressure;BME280_temperature;BME280_humidity;BME280_pressure;Samples;Min_cycle;Max_cycle;Signal;HPM_P1;HPM_P2
2021/05/18 00:04:59;;;;;;;2.95;1.63;;;17.70;64.30;;;;;;10554426;28;20027;-55
2021/05/18 00:15:21;;;;;;;3.37;1.70;;;17.70;64.30;;;;;;10539397;28;20028;-55
2021/05/18 00:20:22;;;;;;;2.50;1.55;;;17.70;64.30;;;;;;10563944;28;20394;-55
2021/05/18 00:25:23;;;;;;;2.38;1.52;;;17.70;64.20;;;;;;10547476;28;20039;-55
2021/05/18 00:30:24;;;;;;;4.07;2.35;;;17.70;64.10;;;;;;10565766;28;20357;-55
2021/05/18 00:35:25;;;;;;;2.22;1.50;;;17.70;64.00;;;;;;10547146;28;20032;-55
2021/05/18 00:40:26;;;;;;;2.72;1.88;;;17.70;64.00;;;;;;10555027;28;20046;-55
2021/05/18 00:45:31;;;;;;;1.88;1.40;;;17.70;64.00;;;;;;10562353;28;20032;-54
2021/05/18 00:50:35;;;;;;;3.60;1.85;;;17.70;63.90;;;;;;10572189;28;20036;-55
2021/05/18 00:55:42;;;;;;;4.00;2.25;;;17.70;63.90;;;;;;10546910;28;20028;-56
2021/05/18 01:00:44;;;;;;;2.28;1.50;;;17.70;63.90;;;;;;10546328;28;20028;-55
2021/05/18 01:11:05;;;;;;;4.20;1.60;;;17.70;63.80;;;;;;10567025;28;20035;-55
2021/05/18 01:16:09;;;;;;;3.75;1.45;;;17.70;63.80;;;;;;10549135;28;20480;-55
2021/05/18 01:21:12;;;;;;;3.40;1.60;;;17.70;63.70;;;;;;10569586;28;20028;-55
2021/05/18 01:26:14;;;;;;;3.58;1.90;;;17.70;63.60;;;;;;10545822;28;20032;-55
2021/05/18 01:31:21;;;;;;;3.13;1.45;;;17.70;63.60;;;;;;10561027;28;20388;-55
2021/05/18 01:36:23;;;;;;;6.97;2.15;;;17.80;68.40;;;;;;10557288;28;20035;-55
2021/05/18 01:46:46;;;;;;;3.83;1.80;;;17.80;68.10;;;;;;10549592;28;20032;-53
2021/05/18 01:51:54;;;;;;;3.30;1.48;;;17.80;67.90;;;;;;10526167;28;20044;-56
2021/05/18 02:02:03;;;;;;;2.47;1.52;;;17.70;67.60;;;;;;10566017;28;20079;-55
2021/05/18 02:07:35;;;;;;;2.50;1.40;;;17.80;67.40;;;;;;10543454;28;20488;-55
2021/05/18 02:12:36;;;;;;;2.38;1.73;;;17.80;67.50;;;;;;10559962;28;20054;-55
2021/05/18 02:17:42;;;;;;;5.22;1.88;;;17.70;67.30;;;;;;10532875;28;20065;-55
2021/05/18 02:24:39;;;;;;;3.28;1.80;;;17.70;67.00;;;;;;10557251;28;20032;-55
2021/05/18 02:28:20;;;;;;;3.67;2.20;;;17.70;67.00;;;;;;10577330;28;20123;-56
2021/05/18 02:33:21;;;;;;;3.15;1.70;;;17.70;66.90;;;;;;10542313;28;20095;-55
2021/05/18 02:38:22;;;;;;;3.15;1.45;;;17.70;66.90;;;;;;10543034;28;20036;-56
2021/05/18 02:43:28;;;;;;;2.80;1.63;;;17.70;66.60;;;;;;10536864;28;20492;-55
2021/05/18 02:53:48;;;;;;;2.57;1.80;;;17.70;66.20;;;;;;10563176;28;20028;-55
2021/05/18 02:59:22;;;;;;;3.70;1.50;;;17.70;66.10;;;;;;10541579;28;20036;-55
2021/05/18 03:04:16;;;;;;;2.75;1.90;;;17.70;66.00;;;;;;10553176;28;20032;-54
2021/05/18 03:09:19;;;;;;;4.88;1.65;;;17.70;65.90;;;;;;10563120;28;20480;-55
2021/05/18 03:14:20;;;;;;;2.58;1.52;;;17.70;65.80;;;;;;10545633;28;20039;-55
2021/05/18 03:19:20;;;;;;;2.33;1.58;;;17.80;65.70;;;;;;10575317;28;20387;-55
2021/05/18 03:24:21;;;;;;;3.33;1.83;;;17.80;65.70;;;;;;10542425;28;20032;-55
2021/05/18 03:29:25;;;;;;;3.00;1.60;;;17.80;65.60;;;;;;10540305;28;20476;-55
2021/05/18 03:34:28;;;;;;;2.15;1.60;;;17.70;65.50;;;;;;10550685;28;20031;-55
2021/05/18 03:39:30;;;;;;;2.28;1.70;;;17.70;65.60;;;;;;10577747;28;20075;-55
2021/05/18 03:58:33;;;;;;;2.92;1.67;;;17.70;65.50;;;;;;10538959;28;19908;-56
2021/05/18 05:04:01;;;;;;;5.05;2.03;;;17.60;65.20;;;;;;10567167;28;20031;-53
2021/05/18 05:08:45;;;;;;;9.35;3.05;;;17.60;65.80;;;;;;10560446;28;20545;-56
2021/05/18 05:19:05;;;;;;;4.68;2.60;;;17.60;66.90;;;;;;10572072;28;20043;-48
2021/05/18 05:24:07;;;;;;;5.82;2.83;;;17.70;66.90;;;;;;10579569;28;20109;-47
2021/05/18 05:29:08;;;;;;;13.55;4.00;;;17.70;68.20;;;;;;10574144;28;20032;-57
2021/05/18 05:34:10;;;;;;;4.20;2.75;;;17.70;67.40;;;;;;10544643;28;20571;-56
2021/05/18 05:39:23;;;;;;;14.30;3.65;;;17.70;67.10;;;;;;10544102;28;20086;-52
2021/05/18 05:44:24;;;;;;;16.83;3.53;;;17.70;67.50;;;;;;10544372;28;20148;-56
2021/05/18 05:49:25;;;;;;;12.13;4.88;;;17.70;67.40;;;;;;10544132;28;20081;-56
2021/05/18 05:54:26;;;;;;;22.58;5.25;;;17.80;67.20;;;;;;10556261;28;20028;-55
2021/05/18 05:59:27;;;;;;;18.13;5.13;;;17.70;67.00;;;;;;10581411;28;20062;-55
2021/05/18 06:04:27;;;;;;;7.35;3.45;;;17.70;66.70;;;;;;10582488;28;20102;-56
2021/05/18 06:09:28;;;;;;;15.63;4.00;;;17.70;66.60;;;;;;10570484;28;20535;-55
2021/05/18 06:51:15;;;;;;;7.68;4.72;;;17.60;66.30;;;;;;10539243;28;20040;-57
2021/05/18 06:56:16;;;;;;;9.50;3.63;;;17.60;66.30;;;;;;10553181;28;20050;-58
2021/05/18 07:01:17;;;;;;;12.52;4.57;;;17.60;66.20;;;;;;10565513;28;20028;-58
2021/05/18 07:06:39;;;;;;;10.32;3.60;;;17.60;66.30;;;;;;10541205;28;20032;-58
2021/05/18 07:11:40;;;;;;;8.55;3.38;;;17.60;66.20;;;;;;10551580;28;20034;-58
2021/05/18 07:16:41;;;;;;;5.40;3.75;;;17.60;66.20;;;;;;10582488;28;20032;-57
2021/05/18 07:21:42;;;;;;;6.45;3.72;;;17.60;66.10;;;;;;10582149;28;20035;-58
2021/05/18 07:26:43;;;;;;;9.50;3.88;;;17.60;66.10;;;;;;10582108;28;20051;-57
2021/05/18 07:31:44;;;;;;;4.72;3.40;;;17.60;66.10;;;;;;10557814;28;20126;-57
2021/05/18 07:36:45;;;;;;;7.78;4.32;;;17.60;66.00;;;;;;10539579;28;20026;-57
2021/05/18 07:41:45;;;;;;;6.80;3.40;;;17.60;66.00;;;;;;10521885;28;20052;-57
2021/05/18 07:46:47;;;;;;;7.35;3.30;;;17.50;66.00;;;;;;10539843;28;20028;-57
2021/05/18 08:02:25;;;;;;;7.47;4.05;;;17.60;65.90;;;;;;10566826;28;20035;-58
2021/05/18 08:07:26;;;;;;;6.38;3.38;;;17.60;65.80;;;;;;10560839;28;20422;-58
2021/05/18 08:12:27;;;;;;;6.78;3.85;;;17.60;65.80;;;;;;10553931;28;20107;-57
2021/05/18 08:17:31;;;;;;;4.18;2.95;;;17.60;65.80;;;;;;10540642;28;20158;-57
2021/05/18 10:36:46;;;;;;;3.88;1.88;;;17.40;65.90;;;;;;10560679;28;20729;-56
2021/05/18 10:41:48;;;;;;;2.63;1.80;;;17.40;66.00;;;;;;10565591;28;20122;-56
2021/05/18 10:46:50;;;;;;;1.98;1.58;;;17.50;66.10;;;;;;10560747;28;20480;-56
2021/05/18 10:51:54;;;;;;;3.58;2.15;;;17.50;66.10;;;;;;10555790;28;20040;-57
2021/05/18 10:56:55;;;;;;;2.63;1.70;;;17.50;66.10;;;;;;10582810;28;20023;-56
2021/05/18 11:02:19;;;;;;;3.65;2.28;;;17.50;66.00;;;;;;10555469;28;20030;-57
2021/05/18 11:07:30;;;;;;;2.85;2.08;;;17.50;66.00;;;;;;10548102;28;20043;-57
2021/05/18 11:12:31;;;;;;;3.60;1.92;;;17.50;66.00;;;;;;10557251;28;20032;-57
2021/05/18 11:17:34;;;;;;;4.25;1.80;;;17.50;66.00;;;;;;10560762;28;20527;-57
2021/05/18 11:28:38;;;;;;;3.45;1.70;;;17.50;66.10;;;;;;10541312;28;20044;-56
2021/05/18 11:33:48;;;;;;;2.35;1.67;;;17.50;66.00;;;;;;10573470;28;20063;-56
2021/05/18 11:39:06;;;;;;;4.55;1.80;;;17.60;66.00;;;;;;10565652;28;20032;-56
2021/05/18 11:44:12;;;;;;;3.97;1.85;;;17.60;65.90;;;;;;10561158;28;20482;-56
2021/05/18 11:49:14;;;;;;;5.00;1.90;;;17.60;67.10;;;;;;10554500;28;20073;-56
2021/05/18 11:54:19;;;;;;;5.50;2.15;;;17.70;69.00;;;;;;10539383;28;20020;-56
2021/05/18 11:59:24;;;;;;;2.95;1.95;;;17.60;67.40;;;;;;10549954;28;20027;-56
2021/05/18 12:04:27;;;;;;;4.20;1.98;;;17.60;67.00;;;;;;10552726;28;20035;-56
2021/05/18 12:09:29;;;;;;;6.80;2.83;;;17.70;67.30;;;;;;10538599;28;20472;-56
2021/05/18 12:14:31;;;;;;;6.13;2.47;;;17.70;67.00;;;;;;10556766;28;20024;-58
2021/05/18 12:19:32;;;;;;;3.40;2.08;;;17.80;67.50;;;;;;10560931;28;20063;-57
2021/05/18 12:24:40;;;;;;;4.45;2.33;;;17.80;66.80;;;;;;10543364;28;20023;-58
2021/05/18 12:29:50;;;;;;;10.88;4.82;;;17.80;66.80;;;;;;10544150;28;20027;-58
2021/05/18 12:34:54;;;;;;;6.57;2.83;;;17.80;66.60;;;;;;10567288;28;20034;-58
2021/05/18 12:39:55;;;;;;;5.78;2.03;;;17.80;66.60;;;;;;10565373;28;20044;-60
2021/05/18 12:45:06;;;;;;;5.95;2.05;;;17.80;66.60;;;;;;10571153;28;20036;-57
2021/05/18 12:50:13;;;;;;;3.80;2.00;;;17.90;66.80;;;;;;10559406;28;20123;-60
2021/05/18 12:55:27;;;;;;;5.53;2.05;;;17.90;66.60;;;;;;10537898;28;20060;-61
2021/05/18 13:00:44;;;;;;;3.70;2.03;;;17.90;66.80;;;;;;10555918;28;20423;-60
2021/05/18 13:05:52;;;;;;;6.75;1.90;;;17.90;66.80;;;;;;10537736;28;20771;-58
2021/05/18 13:16:21;;;;;;;7.47;1.90;;;18.00;66.70;;;;;;10559860;28;20028;-62
2021/05/18 13:21:44;;;;;;;11.25;2.83;;;18.00;66.60;;;;;;10554294;28;20039;-60
2021/05/18 13:26:45;;;;;;;11.65;2.72;;;18.00;66.70;;;;;;10563739;28;20467;-60
2021/05/18 13:31:52;;;;;;;5.15;2.65;;;17.90;66.60;;;;;;10583686;28;20031;-60
2021/05/18 13:36:53;;;;;;;7.35;2.13;;;17.90;66.50;;;;;;10551170;28;20024;-59
2021/05/18 13:41:54;;;;;;;8.13;2.13;;;17.90;66.50;;;;;;10544305;28;20055;-60
2021/05/18 13:46:55;;;;;;;9.50;2.58;;;17.90;66.50;;;;;;10526711;28;20460;-60
2021/05/18 13:51:56;;;;;;;6.15;1.90;;;17.90;66.30;;;;;;10570397;28;20074;-60
2021/05/18 13:56:58;;;;;;;4.05;1.60;;;17.90;66.20;;;;;;10563300;28;20026;-59
2021/05/18 14:01:59;;;;;;;4.28;1.55;;;17.80;66.20;;;;;;10543702;28;20035;-59
2021/05/18 14:13:16;;;;;;;9.10;2.33;;;17.80;66.10;;;;;;10562175;28;20506;-59
2021/05/18 14:18:17;;;;;;;14.95;3.33;;;17.80;66.20;;;;;;10569893;28;20111;-57
2021/05/18 14:23:28;;;;;;;13.60;2.45;;;17.80;66.70;;;;;;10559084;28;20031;-58
2021/05/18 14:28:29;;;;;;;17.02;2.22;;;17.80;66.30;;;;;;10548053;28;20043;-58
2021/05/18 14:33:30;;;;;;;10.95;2.10;;;17.90;67.20;;;;;;10557328;28;20035;-59
2021/05/18 14:38:31;;;;;;;10.23;3.03;;;17.80;66.40;;;;;;10555906;28;20054;-59
2021/05/18 14:59:14;;;;;;;7.18;2.10;;;17.80;66.20;;;;;;10541912;28;20395;-60
2021/05/18 15:04:15;;;;;;;6.00;1.50;;;17.80;66.20;;;;;;10541560;28;20031;-60
2021/05/18 15:09:16;;;;;;;6.03;2.05;;;17.80;66.10;;;;;;10560670;28;20472;-60
2021/05/18 15:14:16;;;;;;;3.42;1.65;;;17.80;66.00;;;;;;10572742;28;20119;-62
2021/05/18 15:19:18;;;;;;;9.63;2.10;;;17.80;66.00;;;;;;10555288;28;20451;-59
2021/05/18 15:24:20;;;;;;;6.80;1.92;;;17.80;66.00;;;;;;10565329;28;20031;-59
2021/05/18 15:29:21;;;;;;;4.90;2.03;;;17.80;65.60;;;;;;10570746;28;20028;-59
2021/05/18 15:34:22;;;;;;;4.38;1.67;;;17.80;65.00;;;;;;10540529;28;20489;-59
2021/05/18 15:39:27;;;;;;;4.38;1.77;;;17.80;63.80;;;;;;10565471;28;20085;-58
2021/05/18 15:44:28;;;;;;;6.03;1.40;;;17.80;63.60;;;;;;10521927;28;20107;-58
2021/05/18 15:49:30;;;;;;;4.43;1.70;;;17.80;63.50;;;;;;10542530;28;20028;-58
2021/05/18 15:54:30;;;;;;;4.72;1.38;;;17.80;63.50;;;;;;10548869;28;20023;-59
2021/05/18 15:59:31;;;;;;;3.50;1.33;;;17.80;63.50;;;;;;10553733;28;20036;-58
2021/05/18 16:04:32;;;;;;;2.97;1.00;;;17.80;63.30;;;;;;10521003;28;20039;-58
2021/05/18 16:09:32;;;;;;;3.58;1.13;;;17.80;63.20;;;;;;10557204;28;20489;-61
2021/05/18 16:14:37;;;;;;;4.00;0.98;;;17.80;63.00;;;;;;10554378;28;20376;-57
2021/05/18 16:19:38;;;;;;;11.13;1.95;;;17.80;63.00;;;;;;10547476;28;20537;-57
2021/05/18 16:24:38;;;;;;;9.68;1.30;;;17.90;63.70;;;;;;10560487;28;20158;-55
2021/05/18 16:29:39;;;;;;;9.48;1.75;;;18.00;66.60;;;;;;10539531;28;20855;-55
2021/05/18 16:34:40;;;;;;;7.63;1.88;;;18.00;66.60;;;;;;10560582;28;20524;-57
2021/05/18 16:39:40;;;;;;;9.35;1.77;;;18.00;66.10;;;;;;10538627;28;20043;-54
2021/05/18 16:44:41;;;;;;;6.65;1.48;;;18.00;66.40;;;;;;10538349;28;20766;-55
2021/05/18 16:49:42;;;;;;;8.82;2.10;;;18.10;66.40;;;;;;10558792;28;20054;-55
2021/05/18 16:54:42;;;;;;;7.95;1.70;;;18.10;66.40;;;;;;10537929;28;20092;-56
2021/05/18 16:59:43;;;;;;;7.35;1.60;;;18.10;66.20;;;;;;10538967;28;20032;-57
2021/05/18 17:04:45;;;;;;;9.18;1.13;;;18.10;66.70;;;;;;10525761;28;20032;-56
2021/05/18 17:09:46;;;;;;;6.90;1.45;;;18.10;66.00;;;;;;10546151;28;20067;-56
2021/05/18 17:14:50;;;;;;;12.50;0.98;;;18.20;65.90;;;;;;10551188;28;20462;-57
2021/05/18 17:19:51;;;;;;;10.65;1.52;;;18.20;66.10;;;;;;10579692;28;20028;-57
2021/05/18 17:24:51;;;;;;;5.20;1.98;;;18.10;65.70;;;;;;10545082;28;20032;-58
2021/05/18 17:29:52;;;;;;;10.18;1.42;;;18.20;65.80;;;;;;10554242;28;20410;-58
2021/05/18 17:34:53;;;;;;;7.13;1.52;;;18.10;65.50;;;;;;10545874;28;20020;-58
2021/05/18 17:39:53;;;;;;;7.57;1.77;;;18.10;65.80;;;;;;10561470;28;20122;-56
2021/05/18 17:44:58;;;;;;;7.10;1.52;;;18.20;65.80;;;;;;10529838;28;20126;-53
2021/05/18 17:49:59;;;;;;;9.68;1.95;;;18.10;65.60;;;;;;10571343;28;20187;-52
2021/05/18 17:55:00;;;;;;;5.65;1.40;;;18.20;65.80;;;;;;10526179;28;20055;-54
2021/05/18 18:00:01;;;;;;;12.45;1.63;;;18.20;65.50;;;;;;10562690;28;20043;-52
2021/05/18 18:05:02;;;;;;;6.03;1.58;;;18.20;65.70;;;;;;10545382;28;20118;-58
2021/05/18 18:10:08;;;;;;;5.03;1.02;;;18.20;65.70;;;;;;10544876;28;20366;-54
2021/05/18 18:15:09;;;;;;;4.97;1.60;;;18.10;65.30;;;;;;10559260;28;20026;-55
2021/05/18 18:20:12;;;;;;;6.53;1.08;;;18.10;65.60;;;;;;10571391;28;20031;-55
2021/05/18 18:25:13;;;;;;;3.85;1.10;;;18.10;65.80;;;;;;10566972;28;20039;-52
2021/05/18 18:30:14;;;;;;;3.53;0.98;;;18.10;65.20;;;;;;10570828;28;20089;-53
2021/05/18 18:35:15;;;;;;;5.60;1.25;;;18.10;65.10;;;;;;10562812;28;20061;-49
2021/05/18 18:40:16;;;;;;;4.90;1.05;;;18.20;65.30;;;;;;10563956;28;20050;-50
2021/05/18 18:45:17;;;;;;;8.80;1.17;;;18.20;65.90;;;;;;10567228;28;20054;-50
2021/05/18 18:50:21;;;;;;;5.90;1.23;;;18.20;64.70;;;;;;10547100;28;20085;-50
2021/05/18 18:55:23;;;;;;;3.30;1.13;;;18.10;64.90;;;;;;10547116;28;20020;-55
2021/05/18 19:00:23;;;;;;;2.42;1.05;;;18.20;65.10;;;;;;10546680;28;20032;-55
2021/05/18 19:05:42;;;;;;;6.22;1.80;;;18.10;64.90;;;;;;10562883;28;20072;-56
2021/05/18 19:15:53;;;;;;;3.92;1.25;;;18.20;65.30;;;;;;10558698;28;20036;-56
2021/05/18 19:20:54;;;;;;;2.22;1.25;;;18.20;65.30;;;;;;10561871;28;20028;-50
2021/05/18 19:25:56;;;;;;;8.75;1.25;;;18.20;65.60;;;;;;10556686;28;20024;-55
2021/05/18 19:30:57;;;;;;;2.75;1.05;;;18.20;66.10;;;;;;10564653;28;20028;-48
2021/05/18 19:41:31;;;;;;;6.40;1.08;;;18.20;65.90;;;;;;10554599;28;20044;-52
2021/05/18 19:51:46;;;;;;;3.95;1.00;;;18.20;66.20;;;;;;10545504;28;20400;-57
2021/05/18 20:23:41;;;;;;;3.75;1.10;;;18.10;65.50;;;;;;10538149;28;20028;-57
2021/05/18 20:28:42;;;;;;;2.05;0.75;;;18.10;65.20;;;;;;10545471;28;20027;-56
2021/05/18 20:33:58;;;;;;;1.60;0.70;;;18.00;65.10;;;;;;10550960;28;20542;-57
2021/05/18 20:44:02;;;;;;;2.10;1.05;;;18.00;64.80;;;;;;10565975;28;20131;-57
2021/05/18 20:49:03;;;;;;;1.40;0.70;;;18.00;64.80;;;;;;10564764;28;20035;-53
2021/05/18 20:54:06;;;;;;;5.40;0.90;;;18.00;64.70;;;;;;10533980;28;20024;-54
2021/05/18 20:59:08;;;;;;;1.88;0.93;;;18.00;64.70;;;;;;10546903;28;20035;-52
2021/05/18 21:04:09;;;;;;;3.38;1.05;;;18.00;64.70;;;;;;10560146;28;20028;-54
2021/05/18 21:19:16;;;;;;;3.35;1.10;;;18.00;64.50;;;;;;10581640;28;20036;-55
2021/05/18 21:24:17;;;;;;;2.53;0.77;;;18.00;64.40;;;;;;10545527;28;20118;-55
2021/05/18 21:29:18;;;;;;;2.30;1.00;;;18.00;64.30;;;;;;10545322;28;20115;-49
2021/05/18 21:34:20;;;;;;;1.98;0.85;;;18.00;64.20;;;;;;10544764;28;20039;-53
2021/05/18 21:39:25;;;;;;;2.10;0.90;;;18.00;64.20;;;;;;10547784;28;20028;-53
2021/05/18 21:44:25;;;;;;;3.55;0.90;;;18.00;64.80;;;;;;10544730;28;20050;-53
2021/05/18 21:49:26;;;;;;;3.83;1.00;;;18.00;64.40;;;;;;10536173;28;20032;-51
2021/05/18 21:54:28;;;;;;;2.42;0.80;;;18.00;64.30;;;;;;10544415;28;20028;-52
2021/05/18 21:59:30;;;;;;;2.30;0.95;;;18.00;64.20;;;;;;10543829;28;20028;-51
2021/05/18 22:04:31;;;;;;;1.65;1.02;;;17.90;64.00;;;;;;10543916;28;20036;-53
2021/05/18 22:30:25;;;;;;;3.35;1.10;;;17.90;63.80;;;;;;10542905;28;20044;-53
2021/05/18 22:35:26;;;;;;;1.70;0.90;;;17.90;63.70;;;;;;10525206;28;20029;-54
2021/05/18 22:40:26;;;;;;;5.40;0.90;;;17.90;63.40;;;;;;10542637;28;20040;-53
2021/05/18 22:45:27;;;;;;;2.30;0.93;;;17.90;63.30;;;;;;10558507;28;20132;-52
2021/05/18 22:50:28;;;;;;;1.75;0.75;;;17.90;63.30;;;;;;10564570;28;20034;-52
2021/05/18 22:55:29;;;;;;;3.00;1.00;;;17.90;63.30;;;;;;10558836;28;20087;-53
2021/05/18 23:00:30;;;;;;;2.03;0.95;;;17.90;63.10;;;;;;10555496;28;20031;-54
2021/05/18 23:05:31;;;;;;;3.35;1.27;;;17.90;63.10;;;;;;10560849;28;20028;-54
2021/05/18 23:10:32;;;;;;;1.48;0.88;;;17.90;63.10;;;;;;10541394;28;20090;-53
2021/05/18 23:15:33;;;;;;;2.25;0.90;;;17.90;63.10;;;;;;10553462;28;20403;-54
2021/05/18 23:20:34;;;;;;;1.23;0.85;;;17.90;63.10;;;;;;10552031;28;20036;-54
2021/05/18 23:25:35;;;;;;;1.58;0.90;;;17.90;63.10;;;;;;10540644;28;20042;-54
2021/05/18 23:30:36;;;;;;;1.83;0.98;;;17.90;62.90;;;;;;10541041;28;20428;-52
2021/05/18 23:35:36;;;;;;;1.88;1.25;;;17.90;62.80;;;;;;10544832;28;20024;-53
2021/05/18 23:40:37;;;;;;;2.03;0.95;;;17.90;62.80;;;;;;10540331;28;20058;-54
2021/05/18 23:45:38;;;;;;;2.45;0.80;;;17.90;62.70;;;;;;10541327;28;20400;-51
2021/05/18 23:50:38;;;;;;;2.08;0.98;;;17.90;62.60;;;;;;10543119;28;20035;-51
2021/05/18 23:55:39;;;;;;;2.30;0.98;;;17.90;62.60;;;;;;10539727;28;20024;-50
